sensor_id;sensor_type;location;lat;lon;timestamp;P1;durP1;ratioP1;P2;durP2;ratioP2
63738;SDS011;68816;45.558;10.070;2023-09-19T00:02:01;7.60;;;3.30;;
63738;SDS011;68816;45.558;10.070;2023-09-19T00:04:32;5.82;;;3.05;;
63738;SDS011;68816;45.558;10.070;2023-09-19T00:06:58;5.60;;;3.33;;
63738;SDS011;68816;45.558;10.070;2023-09-19T00:09:24;4.97;;;3.33;;
63738;SDS011;68816;45.558;10.070;2023-09-19T00:11:55;6.47;;;3.03;;
63738;SDS011;68816;45.558;10.070;2023-09-19T00:14:25;6.30;;;3.15;;
63738;SDS011;68816;45.558;10.070;2023-09-19T00:16:50;6.00;;;3.50;;
63738;SDS011;68816;45.558;10.070;2023-09-19T00:19:16;7.03;;;3.35;;
63738;SDS011;68816;45.558;10.070;2023-09-19T00:21:41;8.32;;;4.50;;
63738;SDS011;68816;45.558;10.070;2023-09-19T00:24:08;8.85;;;4.32;;
63738;SDS011;68816;45.558;10.070;2023-09-19T00:26:34;7.00;;;4.47;;
63738;SDS011;68816;45.558;10.070;2023-09-19T00:29:06;11.15;;;5.32;;
63738;SDS011;68816;45.558;10.070;2023-09-19T00:31:36;11.95;;;4.50;;
63738;SDS011;68816;45.558;10.070;2023-09-19T00:34:02;8.10;;;4.60;;
63738;SDS011;68816;45.558;10.070;2023-09-19T00:36:29;11.38;;;5.30;;
63738;SDS011;68816;45.558;10.070;2023-09-19T00:38:55;6.80;;;4.45;;
63738;SDS011;68816;45.558;10.070;2023-09-19T00:41:20;8.07;;;4.57;;
63738;SDS011;68816;45.558;10.070;2023-09-19T00:43:46;7.38;;;3.80;;
63738;SDS011;68816;45.558;10.070;2023-09-19T00:46:28;6.55;;;3.63;;
63738;SDS011;68816;45.558;10.070;2023-09-19T00:48:56;5.13;;;3.60;;
63738;SDS011;68816;45.558;10.070;2023-09-19T00:51:25;10.77;;;4.07;;
63738;SDS011;68816;45.558;10.070;2023-09-19T00:53:52;10.13;;;4.20;;
63738;SDS011;68816;45.558;10.070;2023-09-19T00:56:24;10.73;;;4.20;;
63738;SDS011;68816;45.558;10.070;2023-09-19T00:58:51;8.40;;;4.07;;
63738;SDS011;68816;45.558;10.070;2023-09-19T01:01:22;8.77;;;3.58;;
63738;SDS011;68816;45.558;10.070;2023-09-19T01:03:48;7.45;;;4.32;;
63738;SDS011;68816;45.558;10.070;2023-09-19T01:06:15;8.27;;;4.03;;
63738;SDS011;68816;45.558;10.070;2023-09-19T01:08:42;10.10;;;4.00;;
63738;SDS011;68816;45.558;10.070;2023-09-19T01:13:58;7.30;;;4.28;;
63738;SDS011;68816;45.558;10.070;2023-09-19T01:16:36;9.23;;;4.20;;
63738;SDS011;68816;45.558;10.070;2023-09-19T01:27:40;7.22;;;4.03;;
63738;SDS011;68816;45.558;10.070;2023-09-19T01:30:35;7.32;;;4.00;;
63738;SDS011;68816;45.558;10.070;2023-09-19T01:33:05;11.40;;;4.40;;
63738;SDS011;68816;45.558;10.070;2023-09-19T01:35:33;7.10;;;4.20;;
63738;SDS011;68816;45.558;10.070;2023-09-19T01:37:59;9.38;;;4.22;;
63738;SDS011;68816;45.558;10.070;2023-09-19T01:40:25;9.35;;;4.38;;
63738;SDS011;68816;45.558;10.070;2023-09-19T01:51:01;7.63;;;4.30;;
63738;SDS011;68816;45.558;10.070;2023-09-19T01:58:48;8.40;;;4.00;;
63738;SDS011;68816;45.558;10.070;2023-09-19T02:01:22;6.47;;;4.05;;
63738;SDS011;68816;45.558;10.070;2023-09-19T02:03:49;11.18;;;4.45;;
63738;SDS011;68816;45.558;10.070;2023-09-19T02:06:16;9.30;;;3.80;;
63738;SDS011;68816;45.558;10.070;2023-09-19T02:08:43;9.05;;;4.20;;
63738;SDS011;68816;45.558;10.070;2023-09-19T02:11:10;12.18;;;4.50;;
63738;SDS011;68816;45.558;10.070;2023-09-19T02:13:36;7.22;;;4.00;;
63738;SDS011;68816;45.558;10.070;2023-09-19T02:16:03;10.32;;;4.53;;
63738;SDS011;68816;45.558;10.070;2023-09-19T02:18:29;9.10;;;4.45;;
63738;SDS011;68816;45.558;10.070;2023-09-19T02:20:56;11.35;;;4.88;;
63738;SDS011;68816;45.558;10.070;2023-09-19T02:23:24;9.30;;;4.80;;
63738;SDS011;68816;45.558;10.070;2023-09-19T02:25:54;12.10;;;5.30;;
63738;SDS011;68816;45.558;10.070;2023-09-19T02:28:20;8.57;;;4.28;;
63738;SDS011;68816;45.558;10.070;2023-09-19T02:30:47;9.45;;;5.15;;
63738;SDS011;68816;45.558;10.070;2023-09-19T02:33:14;9.40;;;5.50;;
63738;SDS011;68816;45.558;10.070;2023-09-19T02:35:40;15.25;;;6.32;;
63738;SDS011;68816;45.558;10.070;2023-09-19T02:38:05;15.85;;;7.63;;
63738;SDS011;68816;45.558;10.070;2023-09-19T02:40:36;16.45;;;8.15;;
63738;SDS011;68816;45.558;10.070;2023-09-19T02:43:02;12.48;;;7.35;;
63738;SDS011;68816;45.558;10.070;2023-09-19T02:45:30;15.18;;;8.70;;
63738;SDS011;68816;45.558;10.070;2023-09-19T02:47:56;14.63;;;8.82;;
63738;SDS011;68816;45.558;10.070;2023-09-19T02:50:22;13.98;;;9.77;;
63738;SDS011;68816;45.558;10.070;2023-09-19T02:52:48;15.18;;;9.40;;
63738;SDS011;68816;45.558;10.070;2023-09-19T02:55:14;14.90;;;9.93;;
63738;SDS011;68816;45.558;10.070;2023-09-19T02:57:47;21.15;;;11.38;;
63738;SDS011;68816;45.558;10.070;2023-09-19T03:00:14;19.48;;;11.50;;
63738;SDS011;68816;45.558;10.070;2023-09-19T03:02:41;18.42;;;10.20;;
63738;SDS011;68816;45.558;10.070;2023-09-19T03:05:08;20.38;;;11.40;;
63738;SDS011;68816;45.558;10.070;2023-09-19T03:07:36;14.75;;;9.30;;
63738;SDS011;68816;45.558;10.070;2023-09-19T03:10:03;15.80;;;9.10;;
63738;SDS011;68816;45.558;10.070;2023-09-19T03:12:32;15.00;;;9.68;;
63738;SDS011;68816;45.558;10.070;2023-09-19T03:15:00;19.70;;;9.50;;
63738;SDS011;68816;45.558;10.070;2023-09-19T03:17:26;17.15;;;10.10;;
63738;SDS011;68816;45.558;10.070;2023-09-19T03:19:52;20.05;;;10.68;;
63738;SDS011;68816;45.558;10.070;2023-09-19T03:22:18;16.80;;;10.18;;
63738;SDS011;68816;45.558;10.070;2023-09-19T03:24:44;18.35;;;11.35;;
63738;SDS011;68816;45.558;10.070;2023-09-19T03:27:11;16.98;;;10.63;;
63738;SDS011;68816;45.558;10.070;2023-09-19T03:29:41;17.13;;;10.77;;
63738;SDS011;68816;45.558;10.070;2023-09-19T03:32:07;18.27;;;11.10;;
63738;SDS011;68816;45.558;10.070;2023-09-19T03:34:35;14.30;;;9.85;;
63738;SDS011;68816;45.558;10.070;2023-09-19T03:37:07;21.57;;;10.47;;
63738;SDS011;68816;45.558;10.070;2023-09-19T03:39:33;18.10;;;10.63;;
63738;SDS011;68816;45.558;10.070;2023-09-19T03:41:59;17.92;;;10.02;;
63738;SDS011;68816;45.558;10.070;2023-09-19T03:44:25;24.58;;;10.80;;
63738;SDS011;68816;45.558;10.070;2023-09-19T03:46:51;15.63;;;9.68;;
63738;SDS011;68816;45.558;10.070;2023-09-19T03:49:16;17.35;;;9.30;;
63738;SDS011;68816;45.558;10.070;2023-09-19T03:51:42;18.67;;;9.30;;
63738;SDS011;68816;45.558;10.070;2023-09-19T03:54:14;15.68;;;9.82;;
63738;SDS011;68816;45.558;10.070;2023-09-19T03:56:40;17.38;;;8.32;;
63738;SDS011;68816;45.558;10.070;2023-09-19T03:59:05;16.15;;;8.27;;
63738;SDS011;68816;45.558;10.070;2023-09-19T04:01:31;14.63;;;9.05;;
63738;SDS011;68816;45.558;10.070;2023-09-19T04:03:58;17.08;;;8.93;;
63738;SDS011;68816;45.558;10.070;2023-09-19T04:06:33;17.80;;;9.02;;
63738;SDS011;68816;45.558;10.070;2023-09-19T04:09:02;20.83;;;10.02;;
63738;SDS011;68816;45.558;10.070;2023-09-19T04:11:29;19.13;;;9.70;;
63738;SDS011;68816;45.558;10.070;2023-09-19T04:13:55;14.52;;;9.70;;
63738;SDS011;68816;45.558;10.070;2023-09-19T04:16:21;18.38;;;9.02;;
63738;SDS011;68816;45.558;10.070;2023-09-19T04:18:47;17.17;;;9.68;;
63738;SDS011;68816;45.558;10.070;2023-09-19T04:21:12;16.65;;;9.23;;
63738;SDS011;68816;45.558;10.070;2023-09-19T04:23:38;16.00;;;8.95;;
63738;SDS011;68816;45.558;10.070;2023-09-19T04:26:03;16.92;;;9.20;;
63738;SDS011;68816;45.558;10.070;2023-09-19T04:28:30;16.20;;;8.05;;
63738;SDS011;68816;45.558;10.070;2023-09-19T04:30:56;14.40;;;6.78;;
63738;SDS011;68816;45.558;10.070;2023-09-19T04:33:24;11.27;;;5.93;;
63738;SDS011;68816;45.558;10.070;2023-09-19T04:35:50;15.25;;;5.82;;
63738;SDS011;68816;45.558;10.070;2023-09-19T04:38:17;9.75;;;5.72;;
63738;SDS011;68816;45.558;10.070;2023-09-19T04:40:45;11.40;;;6.03;;
63738;SDS011;68816;45.558;10.070;2023-09-19T04:43:13;9.60;;;5.53;;
63738;SDS011;68816;45.558;10.070;2023-09-19T04:45:40;10.57;;;6.00;;
63738;SDS011;68816;45.558;10.070;2023-09-19T04:48:06;10.40;;;5.60;;
63738;SDS011;68816;45.558;10.070;2023-09-19T04:50:33;12.60;;;6.18;;
63738;SDS011;68816;45.558;10.070;2023-09-19T04:52:59;14.10;;;6.90;;
63738;SDS011;68816;45.558;10.070;2023-09-19T04:55:26;16.17;;;7.70;;
63738;SDS011;68816;45.558;10.070;2023-09-19T04:57:52;14.40;;;7.45;;
63738;SDS011;68816;45.558;10.070;2023-09-19T05:00:19;16.35;;;7.32;;
63738;SDS011;68816;45.558;10.070;2023-09-19T05:02:52;16.95;;;7.97;;
63738;SDS011;68816;45.558;10.070;2023-09-19T05:05:21;16.42;;;10.18;;
63738;SDS011;68816;45.558;10.070;2023-09-19T05:07:47;25.20;;;11.02;;
63738;SDS011;68816;45.558;10.070;2023-09-19T05:10:13;29.40;;;11.25;;
63738;SDS011;68816;45.558;10.070;2023-09-19T05:12:40;20.90;;;10.80;;
63738;SDS011;68816;45.558;10.070;2023-09-19T05:15:06;17.92;;;10.60;;
63738;SDS011;68816;45.558;10.070;2023-09-19T05:17:33;21.42;;;11.10;;
63738;SDS011;68816;45.558;10.070;2023-09-19T05:20:00;21.80;;;11.40;;
63738;SDS011;68816;45.558;10.070;2023-09-19T05:22:30;21.23;;;10.77;;
63738;SDS011;68816;45.558;10.070;2023-09-19T05:24:57;20.63;;;11.50;;
63738;SDS011;68816;45.558;10.070;2023-09-19T05:27:23;23.98;;;10.68;;
63738;SDS011;68816;45.558;10.070;2023-09-19T05:29:49;21.05;;;11.38;;
63738;SDS011;68816;45.558;10.070;2023-09-19T05:32:18;20.65;;;10.63;;
63738;SDS011;68816;45.558;10.070;2023-09-19T05:34:45;17.90;;;9.60;;
63738;SDS011;68816;45.558;10.070;2023-09-19T05:37:10;16.80;;;9.13;;
63738;SDS011;68816;45.558;10.070;2023-09-19T05:39:36;19.73;;;9.45;;
63738;SDS011;68816;45.558;10.070;2023-09-19T05:42:02;15.75;;;8.05;;
63738;SDS011;68816;45.558;10.070;2023-09-19T05:44:28;16.30;;;8.35;;
63738;SDS011;68816;45.558;10.070;2023-09-19T05:46:54;14.27;;;7.60;;
63738;SDS011;68816;45.558;10.070;2023-09-19T05:49:21;12.57;;;7.60;;
63738;SDS011;68816;45.558;10.070;2023-09-19T05:51:47;16.23;;;8.13;;
63738;SDS011;68816;45.558;10.070;2023-09-19T05:54:13;15.73;;;8.57;;
63738;SDS011;68816;45.558;10.070;2023-09-19T05:56:38;15.88;;;8.63;;
63738;SDS011;68816;45.558;10.070;2023-09-19T05:59:04;14.90;;;7.55;;
63738;SDS011;68816;45.558;10.070;2023-09-19T06:01:30;19.42;;;7.90;;
63738;SDS011;68816;45.558;10.070;2023-09-19T06:03:58;14.90;;;8.57;;
63738;SDS011;68816;45.558;10.070;2023-09-19T06:06:25;17.02;;;8.40;;
63738;SDS011;68816;45.558;10.070;2023-09-19T06:08:51;22.02;;;9.07;;
63738;SDS011;68816;45.558;10.070;2023-09-19T06:11:17;21.00;;;9.70;;
63738;SDS011;68816;45.558;10.070;2023-09-19T06:13:45;33.95;;;9.48;;
63738;SDS011;68816;45.558;10.070;2023-09-19T06:16:12;32.13;;;10.52;;
63738;SDS011;68816;45.558;10.070;2023-09-19T06:18:38;32.50;;;10.80;;
63738;SDS011;68816;45.558;10.070;2023-09-19T06:21:04;23.58;;;9.45;;
63738;SDS011;68816;45.558;10.070;2023-09-19T06:23:33;30.40;;;9.25;;
63738;SDS011;68816;45.558;10.070;2023-09-19T06:26:00;27.88;;;8.10;;
63738;SDS011;68816;45.558;10.070;2023-09-19T06:28:25;20.45;;;6.80;;
63738;SDS011;68816;45.558;10.070;2023-09-19T06:30:53;17.98;;;6.13;;
63738;SDS011;68816;45.558;10.070;2023-09-19T06:33:20;13.77;;;5.38;;
63738;SDS011;68816;45.558;10.070;2023-09-19T06:35:47;9.93;;;4.40;;
63738;SDS011;68816;45.558;10.070;2023-09-19T06:38:14;10.02;;;4.60;;
63738;SDS011;68816;45.558;10.070;2023-09-19T06:40:40;9.80;;;4.10;;
63738;SDS011;68816;45.558;10.070;2023-09-19T06:43:09;9.95;;;3.95;;
63738;SDS011;68816;45.558;10.070;2023-09-19T06:45:36;9.68;;;4.65;;
63738;SDS011;68816;45.558;10.070;2023-09-19T06:48:01;16.38;;;4.97;;
63738;SDS011;68816;45.558;10.070;2023-09-19T06:50:28;13.95;;;4.93;;
63738;SDS011;68816;45.558;10.070;2023-09-19T06:52:56;10.85;;;4.35;;
63738;SDS011;68816;45.558;10.070;2023-09-19T06:55:24;11.68;;;4.63;;
63738;SDS011;68816;45.558;10.070;2023-09-19T06:57:53;9.98;;;4.57;;
63738;SDS011;68816;45.558;10.070;2023-09-19T07:00:19;9.27;;;4.68;;
63738;SDS011;68816;45.558;10.070;2023-09-19T07:03:00;10.18;;;4.60;;
63738;SDS011;68816;45.558;10.070;2023-09-19T07:05:29;11.70;;;4.38;;
63738;SDS011;68816;45.558;10.070;2023-09-19T07:07:56;9.68;;;4.32;;
63738;SDS011;68816;45.558;10.070;2023-09-19T07:10:26;11.05;;;4.18;;
63738;SDS011;68816;45.558;10.070;2023-09-19T07:15:25;11.00;;;4.28;;
63738;SDS011;68816;45.558;10.070;2023-09-19T07:17:54;10.35;;;4.28;;
63738;SDS011;68816;45.558;10.070;2023-09-19T07:20:21;9.50;;;4.75;;
63738;SDS011;68816;45.558;10.070;2023-09-19T07:22:50;11.93;;;4.95;;
63738;SDS011;68816;45.558;10.070;2023-09-19T07:25:16;7.63;;;4.07;;
63738;SDS011;68816;45.558;10.070;2023-09-19T07:27:42;12.18;;;3.97;;
63738;SDS011;68816;45.558;10.070;2023-09-19T07:30:09;13.48;;;4.80;;
63738;SDS011;68816;45.558;10.070;2023-09-19T07:32:37;11.55;;;4.07;;
63738;SDS011;68816;45.558;10.070;2023-09-19T07:35:03;8.45;;;3.60;;
63738;SDS011;68816;45.558;10.070;2023-09-19T07:37:31;10.38;;;3.90;;
63738;SDS011;68816;45.558;10.070;2023-09-19T07:39:58;8.43;;;3.60;;
63738;SDS011;68816;45.558;10.070;2023-09-19T07:42:26;7.00;;;3.45;;
63738;SDS011;68816;45.558;10.070;2023-09-19T07:44:52;10.50;;;3.90;;
63738;SDS011;68816;45.558;10.070;2023-09-19T07:47:19;11.98;;;3.63;;
63738;SDS011;68816;45.558;10.070;2023-09-19T07:49:48;10.10;;;3.70;;
63738;SDS011;68816;45.558;10.070;2023-09-19T07:52:15;6.90;;;3.25;;
63738;SDS011;68816;45.558;10.070;2023-09-19T07:54:41;8.73;;;3.50;;
63738;SDS011;68816;45.558;10.070;2023-09-19T07:57:09;7.03;;;3.63;;
63738;SDS011;68816;45.558;10.070;2023-09-19T07:59:36;7.28;;;3.53;;
63738;SDS011;68816;45.558;10.070;2023-09-19T08:02:03;9.48;;;4.13;;
63738;SDS011;68816;45.558;10.070;2023-09-19T08:04:30;9.95;;;3.80;;
63738;SDS011;68816;45.558;10.070;2023-09-19T08:06:58;8.50;;;3.15;;
63738;SDS011;68816;45.558;10.070;2023-09-19T08:09:28;9.32;;;3.65;;
63738;SDS011;68816;45.558;10.070;2023-09-19T08:11:58;8.20;;;3.20;;
63738;SDS011;68816;45.558;10.070;2023-09-19T08:14:27;11.05;;;3.78;;
63738;SDS011;68816;45.558;10.070;2023-09-19T08:16:57;8.50;;;3.58;;
63738;SDS011;68816;45.558;10.070;2023-09-19T08:19:25;10.07;;;3.22;;
63738;SDS011;68816;45.558;10.070;2023-09-19T08:21:56;7.88;;;3.10;;
63738;SDS011;68816;45.558;10.070;2023-09-19T08:24:28;15.07;;;3.60;;
63738;SDS011;68816;45.558;10.070;2023-09-19T08:26:55;8.07;;;3.30;;
63738;SDS011;68816;45.558;10.070;2023-09-19T08:29:22;7.55;;;3.58;;
63738;SDS011;68816;45.558;10.070;2023-09-19T08:31:55;9.35;;;3.80;;
63738;SDS011;68816;45.558;10.070;2023-09-19T08:34:22;7.53;;;3.50;;
63738;SDS011;68816;45.558;10.070;2023-09-19T08:36:51;10.35;;;3.70;;
63738;SDS011;68816;45.558;10.070;2023-09-19T08:39:18;7.43;;;4.10;;
63738;SDS011;68816;45.558;10.070;2023-09-19T08:41:44;9.73;;;3.85;;
63738;SDS011;68816;45.558;10.070;2023-09-19T08:44:10;14.15;;;4.40;;
63738;SDS011;68816;45.558;10.070;2023-09-19T08:46:36;6.85;;;4.13;;
63738;SDS011;68816;45.558;10.070;2023-09-19T08:49:17;9.27;;;3.85;;
63738;SDS011;68816;45.558;10.070;2023-09-19T08:52:05;8.40;;;4.05;;
63738;SDS011;68816;45.558;10.070;2023-09-19T08:54:52;12.25;;;3.95;;
63738;SDS011;68816;45.558;10.070;2023-09-19T08:57:21;8.70;;;3.90;;
63738;SDS011;68816;45.558;10.070;2023-09-19T08:59:48;7.05;;;3.78;;
63738;SDS011;68816;45.558;10.070;2023-09-19T09:02:16;10.45;;;4.63;;
63738;SDS011;68816;45.558;10.070;2023-09-19T09:04:46;10.77;;;4.22;;
63738;SDS011;68816;45.558;10.070;2023-09-19T09:07:14;11.65;;;4.30;;
63738;SDS011;68816;45.558;10.070;2023-09-19T09:09:44;9.90;;;4.50;;
63738;SDS011;68816;45.558;10.070;2023-09-19T09:14:44;7.45;;;3.63;;
63738;SDS011;68816;45.558;10.070;2023-09-19T09:17:15;11.77;;;4.10;;
63738;SDS011;68816;45.558;10.070;2023-09-19T09:19:42;14.32;;;4.93;;
63738;SDS011;68816;45.558;10.070;2023-09-19T09:22:08;9.15;;;4.13;;
63738;SDS011;68816;45.558;10.070;2023-09-19T09:24:35;7.75;;;4.03;;
63738;SDS011;68816;45.558;10.070;2023-09-19T09:27:06;12.40;;;4.53;;
63738;SDS011;68816;45.558;10.070;2023-09-19T09:29:42;14.20;;;6.97;;
63738;SDS011;68816;45.558;10.070;2023-09-19T09:32:24;10.15;;;4.40;;
63738;SDS011;68816;45.558;10.070;2023-09-19T09:34:57;11.13;;;4.60;;
63738;SDS011;68816;45.558;10.070;2023-09-19T09:37:24;11.38;;;5.03;;
63738;SDS011;68816;45.558;10.070;2023-09-19T09:39:58;11.38;;;5.25;;
63738;SDS011;68816;45.558;10.070;2023-09-19T09:42:44;14.05;;;4.97;;
63738;SDS011;68816;45.558;10.070;2023-09-19T09:45:20;12.40;;;5.45;;
63738;SDS011;68816;45.558;10.070;2023-09-19T09:48:02;12.73;;;5.18;;
63738;SDS011;68816;45.558;10.070;2023-09-19T09:50:29;19.35;;;5.90;;
63738;SDS011;68816;45.558;10.070;2023-09-19T09:53:27;13.00;;;7.45;;
63738;SDS011;68816;45.558;10.070;2023-09-19T09:58:34;13.82;;;7.22;;
63738;SDS011;68816;45.558;10.070;2023-09-19T10:01:14;13.23;;;7.05;;
63738;SDS011;68816;45.558;10.070;2023-09-19T10:03:41;13.48;;;7.40;;
63738;SDS011;68816;45.558;10.070;2023-09-19T10:06:15;13.00;;;7.28;;
63738;SDS011;68816;45.558;10.070;2023-09-19T10:09:05;13.73;;;6.85;;
63738;SDS011;68816;45.558;10.070;2023-09-19T10:11:35;17.40;;;8.65;;
63738;SDS011;68816;45.558;10.070;2023-09-19T10:14:10;12.35;;;7.10;;
63738;SDS011;68816;45.558;10.070;2023-09-19T10:16:45;19.40;;;8.55;;
63738;SDS011;68816;45.558;10.070;2023-09-19T10:19:20;17.17;;;8.50;;
63738;SDS011;68816;45.558;10.070;2023-09-19T10:21:51;13.70;;;8.82;;
63738;SDS011;68816;45.558;10.070;2023-09-19T10:24:20;18.27;;;9.60;;
63738;SDS011;68816;45.558;10.070;2023-09-19T10:26:48;19.73;;;8.88;;
63738;SDS011;68816;45.558;10.070;2023-09-19T10:29:15;16.63;;;9.02;;
63738;SDS011;68816;45.558;10.070;2023-09-19T10:31:43;16.30;;;8.98;;
63738;SDS011;68816;45.558;10.070;2023-09-19T10:34:15;12.75;;;7.53;;
63738;SDS011;68816;45.558;10.070;2023-09-19T10:36:45;17.45;;;8.65;;
63738;SDS011;68816;45.558;10.070;2023-09-19T10:39:14;17.08;;;9.85;;
63738;SDS011;68816;45.558;10.070;2023-09-19T10:41:44;19.73;;;9.27;;
63738;SDS011;68816;45.558;10.070;2023-09-19T10:44:19;16.15;;;7.72;;
63738;SDS011;68816;45.558;10.070;2023-09-19T10:46:48;14.43;;;8.27;;
63738;SDS011;68816;45.558;10.070;2023-09-19T10:49:15;13.70;;;7.10;;
63738;SDS011;68816;45.558;10.070;2023-09-19T10:51:41;15.68;;;7.03;;
63738;SDS011;68816;45.558;10.070;2023-09-19T10:54:10;14.10;;;7.10;;
63738;SDS011;68816;45.558;10.070;2023-09-19T10:56:38;16.10;;;7.53;;
63738;SDS011;68816;45.558;10.070;2023-09-19T10:59:11;11.85;;;6.10;;
63738;SDS011;68816;45.558;10.070;2023-09-19T11:01:51;13.27;;;6.82;;
63738;SDS011;68816;45.558;10.070;2023-09-19T11:04:26;11.02;;;6.60;;
63738;SDS011;68816;45.558;10.070;2023-09-19T11:09:52;13.02;;;6.75;;
63738;SDS011;68816;45.558;10.070;2023-09-19T11:15:11;14.73;;;6.85;;
63738;SDS011;68816;45.558;10.070;2023-09-19T11:24:40;14.60;;;7.68;;
63738;SDS011;68816;45.558;10.070;2023-09-19T11:26:50;14.35;;;6.72;;
63738;SDS011;68816;45.558;10.070;2023-09-19T11:29:32;12.63;;;6.88;;
63738;SDS011;68816;45.558;10.070;2023-09-19T11:31:58;11.77;;;7.07;;
63738;SDS011;68816;45.558;10.070;2023-09-19T11:39:37;16.23;;;7.53;;
63738;SDS011;68816;45.558;10.070;2023-09-19T11:45:06;14.73;;;8.27;;
63738;SDS011;68816;45.558;10.070;2023-09-19T11:47:32;15.23;;;7.65;;
63738;SDS011;68816;45.558;10.070;2023-09-19T11:50:01;18.38;;;10.73;;
63738;SDS011;68816;45.558;10.070;2023-09-19T11:52:27;16.52;;;9.43;;
63738;SDS011;68816;45.558;10.070;2023-09-19T11:54:59;18.00;;;9.73;;
63738;SDS011;68816;45.558;10.070;2023-09-19T11:57:28;17.17;;;9.13;;
63738;SDS011;68816;45.558;10.070;2023-09-19T11:59:55;15.50;;;8.77;;
63738;SDS011;68816;45.558;10.070;2023-09-19T12:02:39;12.57;;;7.07;;
63738;SDS011;68816;45.558;10.070;2023-09-19T12:05:09;19.02;;;8.70;;
63738;SDS011;68816;45.558;10.070;2023-09-19T12:07:41;14.82;;;7.63;;
63738;SDS011;68816;45.558;10.070;2023-09-19T12:10:12;14.27;;;8.15;;
63738;SDS011;68816;45.558;10.070;2023-09-19T12:12:39;13.25;;;8.13;;
63738;SDS011;68816;45.558;10.070;2023-09-19T12:15:07;11.55;;;6.13;;
63738;SDS011;68816;45.558;10.070;2023-09-19T12:17:36;12.07;;;7.15;;
63738;SDS011;68816;45.558;10.070;2023-09-19T12:20:10;11.73;;;7.53;;
63738;SDS011;68816;45.558;10.070;2023-09-19T12:22:46;12.23;;;7.43;;
63738;SDS011;68816;45.558;10.070;2023-09-19T12:25:14;12.23;;;6.75;;
63738;SDS011;68816;45.558;10.070;2023-09-19T12:27:45;9.73;;;6.30;;
63738;SDS011;68816;45.558;10.070;2023-09-19T12:30:13;11.80;;;6.00;;
63738;SDS011;68816;45.558;10.070;2023-09-19T12:32:40;11.25;;;5.90;;
63738;SDS011;68816;45.558;10.070;2023-09-19T12:35:07;11.70;;;6.88;;
63738;SDS011;68816;45.558;10.070;2023-09-19T12:37:36;13.40;;;6.88;;
63738;SDS011;68816;45.558;10.070;2023-09-19T12:40:13;12.85;;;8.13;;
63738;SDS011;68816;45.558;10.070;2023-09-19T12:42:43;13.77;;;8.20;;
63738;SDS011;68816;45.558;10.070;2023-09-19T12:45:11;12.50;;;7.75;;
63738;SDS011;68816;45.558;10.070;2023-09-19T12:47:38;11.80;;;7.13;;
63738;SDS011;68816;45.558;10.070;2023-09-19T12:52:45;13.32;;;7.03;;
63738;SDS011;68816;45.558;10.070;2023-09-19T12:55:21;17.05;;;7.03;;
63738;SDS011;68816;45.558;10.070;2023-09-19T13:00:39;11.32;;;6.35;;
63738;SDS011;68816;45.558;10.070;2023-09-19T13:05:54;11.55;;;7.05;;
63738;SDS011;68816;45.558;10.070;2023-09-19T13:08:22;13.63;;;6.70;;
63738;SDS011;68816;45.558;10.070;2023-09-19T13:16:05;18.08;;;7.88;;
63738;SDS011;68816;45.558;10.070;2023-09-19T13:18:46;14.15;;;8.60;;
63738;SDS011;68816;45.558;10.070;2023-09-19T13:21:15;11.23;;;7.53;;
63738;SDS011;68816;45.558;10.070;2023-09-19T13:24:18;13.15;;;9.23;;
63738;SDS011;68816;45.558;10.070;2023-09-19T13:26:48;16.80;;;9.07;;
63738;SDS011;68816;45.558;10.070;2023-09-19T13:29:14;15.05;;;9.68;;
63738;SDS011;68816;45.558;10.070;2023-09-19T13:31:46;13.73;;;10.35;;
63738;SDS011;68816;45.558;10.070;2023-09-19T13:34:15;15.65;;;8.70;;
63738;SDS011;68816;45.558;10.070;2023-09-19T13:36:43;13.25;;;9.57;;
63738;SDS011;68816;45.558;10.070;2023-09-19T13:39:09;18.88;;;8.35;;
63738;SDS011;68816;45.558;10.070;2023-09-19T13:41:35;14.15;;;8.05;;
63738;SDS011;68816;45.558;10.070;2023-09-19T13:44:03;12.23;;;10.15;;
63738;SDS011;68816;45.558;10.070;2023-09-19T13:46:30;15.18;;;9.05;;
63738;SDS011;68816;45.558;10.070;2023-09-19T13:49:00;13.93;;;10.13;;
63738;SDS011;68816;45.558;10.070;2023-09-19T13:51:28;15.18;;;10.32;;
63738;SDS011;68816;45.558;10.070;2023-09-19T13:53:55;14.30;;;8.70;;
63738;SDS011;68816;45.558;10.070;2023-09-19T13:56:21;13.55;;;9.95;;
63738;SDS011;68816;45.558;10.070;2023-09-19T13:58:47;14.57;;;9.30;;
63738;SDS011;68816;45.558;10.070;2023-09-19T14:01:13;14.35;;;8.90;;
63738;SDS011;68816;45.558;10.070;2023-09-19T14:03:39;14.27;;;10.27;;
63738;SDS011;68816;45.558;10.070;2023-09-19T14:06:05;15.32;;;10.52;;
63738;SDS011;68816;45.558;10.070;2023-09-19T14:08:31;13.48;;;8.75;;
63738;SDS011;68816;45.558;10.070;2023-09-19T14:10:58;16.60;;;10.95;;
63738;SDS011;68816;45.558;10.070;2023-09-19T14:13:24;13.98;;;9.30;;
63738;SDS011;68816;45.558;10.070;2023-09-19T14:15:50;16.13;;;10.80;;
63738;SDS011;68816;45.558;10.070;2023-09-19T14:18:16;15.73;;;8.65;;
63738;SDS011;68816;45.558;10.070;2023-09-19T14:20:43;14.13;;;9.38;;
63738;SDS011;68816;45.558;10.070;2023-09-19T14:23:09;16.85;;;9.73;;
63738;SDS011;68816;45.558;10.070;2023-09-19T14:25:35;13.82;;;9.65;;
63738;SDS011;68816;45.558;10.070;2023-09-19T14:28:01;13.73;;;8.75;;
63738;SDS011;68816;45.558;10.070;2023-09-19T14:30:27;16.92;;;10.55;;
63738;SDS011;68816;45.558;10.070;2023-09-19T14:32:53;17.33;;;10.77;;
63738;SDS011;68816;45.558;10.070;2023-09-19T14:35:19;15.77;;;9.75;;
63738;SDS011;68816;45.558;10.070;2023-09-19T14:37:48;18.13;;;9.63;;
63738;SDS011;68816;45.558;10.070;2023-09-19T14:40:13;14.80;;;10.80;;
63738;SDS011;68816;45.558;10.070;2023-09-19T14:42:43;12.50;;;9.02;;
63738;SDS011;68816;45.558;10.070;2023-09-19T14:45:10;13.95;;;8.82;;
63738;SDS011;68816;45.558;10.070;2023-09-19T14:47:36;11.43;;;7.55;;
63738;SDS011;68816;45.558;10.070;2023-09-19T14:50:03;16.42;;;9.52;;
63738;SDS011;68816;45.558;10.070;2023-09-19T14:52:32;12.35;;;6.78;;
63738;SDS011;68816;45.558;10.070;2023-09-19T14:54:58;12.82;;;8.13;;
63738;SDS011;68816;45.558;10.070;2023-09-19T14:57:25;12.77;;;7.10;;
63738;SDS011;68816;45.558;10.070;2023-09-19T14:59:51;14.20;;;6.18;;
63738;SDS011;68816;45.558;10.070;2023-09-19T15:02:16;13.05;;;7.10;;
63738;SDS011;68816;45.558;10.070;2023-09-19T15:04:42;15.20;;;6.22;;
63738;SDS011;68816;45.558;10.070;2023-09-19T15:07:13;10.02;;;6.20;;
63738;SDS011;68816;45.558;10.070;2023-09-19T15:09:40;12.45;;;5.63;;
63738;SDS011;68816;45.558;10.070;2023-09-19T15:12:09;10.82;;;7.68;;
63738;SDS011;68816;45.558;10.070;2023-09-19T15:14:41;13.05;;;7.45;;
63738;SDS011;68816;45.558;10.070;2023-09-19T15:17:09;14.77;;;10.50;;
63738;SDS011;68816;45.558;10.070;2023-09-19T15:19:35;16.48;;;8.15;;
63738;SDS011;68816;45.558;10.070;2023-09-19T15:22:02;13.98;;;6.78;;
63738;SDS011;68816;45.558;10.070;2023-09-19T15:24:28;10.20;;;6.50;;
63738;SDS011;68816;45.558;10.070;2023-09-19T15:26:54;10.90;;;7.25;;
63738;SDS011;68816;45.558;10.070;2023-09-19T15:29:20;14.38;;;7.50;;
63738;SDS011;68816;45.558;10.070;2023-09-19T15:31:46;12.88;;;8.15;;
63738;SDS011;68816;45.558;10.070;2023-09-19T15:34:12;10.52;;;7.72;;
63738;SDS011;68816;45.558;10.070;2023-09-19T15:36:41;15.40;;;7.70;;
63738;SDS011;68816;45.558;10.070;2023-09-19T15:39:07;9.73;;;6.82;;